<?xml version="1.0" encoding="UTF-8" standalone="no" ?>
<gpx xmlns="http://www.topografix.com/GPX/1/1" xmlns:xsi="http://www.w3.org/2001/XMLSchema-instance" xsi:schemaLocation="http://www.topografix.com/GPX/1/1 http://www.topografix.com/GPX/1/1/gpx.xsd" version="1.1" creator="VisuGPX - https://www.visugpx.com">
  <metadata>
    <name>Quinéville Lestre 50 Manche</name>
    <desc><![CDATA[Petite marche tranquille entre mer et campagne]]></desc>
  </metadata>
  <trk>
    <name><![CDATA[QUINEVILLE]]></name>
    <trkseg>
      <trkpt lat="49.51227" lon="-1.29756">
        <ele>29.94</ele>
        <time>2017-09-07T12:04:39Z</time>
      </trkpt>
      <trkpt lat="49.51223" lon="-1.29746">
        <ele>29.94</ele>
        <time>2017-09-07T12:04:47Z</time>
      </trkpt>
      <trkpt lat="49.51222" lon="-1.29726">
        <ele>27.05</ele>
        <time>2017-09-07T12:05:03Z</time>
      </trkpt>
      <trkpt lat="49.5122" lon="-1.29704">
        <ele>25.13</ele>
        <time>2017-09-07T12:05:19Z</time>
      </trkpt>
      <trkpt lat="49.51218" lon="-1.29685">
        <ele>24.65</ele>
        <time>2017-09-07T12:05:34Z</time>
      </trkpt>
      <trkpt lat="49.51215" lon="-1.29662">
        <ele>23.69</ele>
        <time>2017-09-07T12:05:52Z</time>
      </trkpt>
      <trkpt lat="49.51214" lon="-1.2964">
        <ele>26.09</ele>
        <time>2017-09-07T12:06:07Z</time>
      </trkpt>
      <trkpt lat="49.51215" lon="-1.29638">
        <ele>26.57</ele>
        <time>2017-09-07T12:06:08Z</time>
      </trkpt>
      <trkpt lat="49.51213" lon="-1.29614">
        <ele>25.13</ele>
        <time>2017-09-07T12:06:25Z</time>
      </trkpt>
      <trkpt lat="49.51212" lon="-1.29587">
        <ele>23.69</ele>
        <time>2017-09-07T12:06:41Z</time>
      </trkpt>
      <trkpt lat="49.51211" lon="-1.29561">
        <ele>20.81</ele>
        <time>2017-09-07T12:07:00Z</time>
      </trkpt>
      <trkpt lat="49.51209" lon="-1.29534">
        <ele>19.36</ele>
        <time>2017-09-07T12:07:17Z</time>
      </trkpt>
      <trkpt lat="49.51208" lon="-1.29506">
        <ele>17.92</ele>
        <time>2017-09-07T12:07:34Z</time>
      </trkpt>
      <trkpt lat="49.51205" lon="-1.29476">
        <ele>16</ele>
        <time>2017-09-07T12:07:52Z</time>
      </trkpt>
      <trkpt lat="49.51204" lon="-1.29441">
        <ele>15.04</ele>
        <time>2017-09-07T12:08:13Z</time>
      </trkpt>
      <trkpt lat="49.51203" lon="-1.29409">
        <ele>14.08</ele>
        <time>2017-09-07T12:08:32Z</time>
      </trkpt>
      <trkpt lat="49.51205" lon="-1.29377">
        <ele>12.63</ele>
        <time>2017-09-07T12:08:51Z</time>
      </trkpt>
      <trkpt lat="49.5121" lon="-1.29342">
        <ele>11.67</ele>
        <time>2017-09-07T12:09:11Z</time>
      </trkpt>
      <trkpt lat="49.51215" lon="-1.29308">
        <ele>10.23</ele>
        <time>2017-09-07T12:09:31Z</time>
      </trkpt>
      <trkpt lat="49.51223" lon="-1.29268">
        <ele>8.79</ele>
        <time>2017-09-07T12:09:52Z</time>
      </trkpt>
      <trkpt lat="49.5123" lon="-1.29232">
        <ele>5.42</ele>
        <time>2017-09-07T12:10:13Z</time>
      </trkpt>
      <trkpt lat="49.51235" lon="-1.29201">
        <ele>5.91</ele>
        <time>2017-09-07T12:10:31Z</time>
      </trkpt>
      <trkpt lat="49.51242" lon="-1.29163">
        <ele>5.91</ele>
        <time>2017-09-07T12:10:52Z</time>
      </trkpt>
      <trkpt lat="49.51249" lon="-1.29135">
        <ele>4.94</ele>
        <time>2017-09-07T12:11:09Z</time>
      </trkpt>
      <trkpt lat="49.5126" lon="-1.29104">
        <ele>6.39</ele>
        <time>2017-09-07T12:11:27Z</time>
      </trkpt>
      <trkpt lat="49.51267" lon="-1.29073">
        <ele>5.42</ele>
        <time>2017-09-07T12:11:45Z</time>
      </trkpt>
      <trkpt lat="49.51271" lon="-1.29044">
        <ele>3.98</ele>
        <time>2017-09-07T12:12:01Z</time>
      </trkpt>
      <trkpt lat="49.51273" lon="-1.29022">
        <ele>3.5</ele>
        <time>2017-09-07T12:12:14Z</time>
      </trkpt>
      <trkpt lat="49.51289" lon="-1.28997">
        <ele>3.98</ele>
        <time>2017-09-07T12:12:34Z</time>
      </trkpt>
      <trkpt lat="49.51317" lon="-1.28975">
        <ele>5.42</ele>
        <time>2017-09-07T12:12:59Z</time>
      </trkpt>
      <trkpt lat="49.51339" lon="-1.28964">
        <ele>3.98</ele>
        <time>2017-09-07T12:13:19Z</time>
      </trkpt>
      <trkpt lat="49.51364" lon="-1.28961">
        <ele>4.94</ele>
        <time>2017-09-07T12:13:39Z</time>
      </trkpt>
      <trkpt lat="49.51385" lon="-1.28962">
        <ele>4.94</ele>
        <time>2017-09-07T12:13:58Z</time>
      </trkpt>
      <trkpt lat="49.51403" lon="-1.28962">
        <ele>3.98</ele>
        <time>2017-09-07T12:14:16Z</time>
      </trkpt>
      <trkpt lat="49.51417" lon="-1.28959">
        <ele>0.14</ele>
        <time>2017-09-07T12:14:33Z</time>
      </trkpt>
      <trkpt lat="49.51434" lon="-1.28956">
        <ele>-3.23</ele>
        <time>2017-09-07T12:14:51Z</time>
      </trkpt>
      <trkpt lat="49.51444" lon="-1.28958">
        <ele>-0.34</ele>
        <time>2017-09-07T12:15:07Z</time>
      </trkpt>
      <trkpt lat="49.51443" lon="-1.28949">
        <ele>1.1</ele>
        <time>2017-09-07T12:15:21Z</time>
      </trkpt>
      <trkpt lat="49.51446" lon="-1.28943">
        <ele>0.14</ele>
        <time>2017-09-07T12:15:27Z</time>
      </trkpt>
      <trkpt lat="49.51454" lon="-1.28921">
        <ele>-3.23</ele>
        <time>2017-09-07T12:15:43Z</time>
      </trkpt>
      <trkpt lat="49.5146" lon="-1.28898">
        <ele>-2.27</ele>
        <time>2017-09-07T12:15:57Z</time>
      </trkpt>
      <trkpt lat="49.51464" lon="-1.28887">
        <ele>-1.79</ele>
        <time>2017-09-07T12:16:05Z</time>
      </trkpt>
      <trkpt lat="49.51471" lon="-1.28858">
        <ele>1.58</ele>
        <time>2017-09-07T12:16:22Z</time>
      </trkpt>
      <trkpt lat="49.51473" lon="-1.28853">
        <ele>2.06</ele>
        <time>2017-09-07T12:16:26Z</time>
      </trkpt>
      <trkpt lat="49.51481" lon="-1.28822">
        <ele>3.98</ele>
        <time>2017-09-07T12:16:44Z</time>
      </trkpt>
      <trkpt lat="49.51489" lon="-1.288">
        <ele>6.39</ele>
        <time>2017-09-07T12:16:59Z</time>
      </trkpt>
      <trkpt lat="49.51483" lon="-1.28786">
        <ele>5.42</ele>
        <time>2017-09-07T12:17:13Z</time>
      </trkpt>
      <trkpt lat="49.51484" lon="-1.28784">
        <ele>4.46</ele>
        <time>2017-09-07T12:17:15Z</time>
      </trkpt>
      <trkpt lat="49.51492" lon="-1.28768">
        <ele>3.5</ele>
        <time>2017-09-07T12:17:28Z</time>
      </trkpt>
      <trkpt lat="49.51502" lon="-1.28729">
        <ele>3.98</ele>
        <time>2017-09-07T12:17:52Z</time>
      </trkpt>
      <trkpt lat="49.51509" lon="-1.28697">
        <ele>4.46</ele>
        <time>2017-09-07T12:18:12Z</time>
      </trkpt>
      <trkpt lat="49.51514" lon="-1.28679">
        <ele>4.94</ele>
        <time>2017-09-07T12:18:25Z</time>
      </trkpt>
      <trkpt lat="49.5152" lon="-1.28646">
        <ele>4.46</ele>
        <time>2017-09-07T12:18:47Z</time>
      </trkpt>
      <trkpt lat="49.51527" lon="-1.28616">
        <ele>3.98</ele>
        <time>2017-09-07T12:19:08Z</time>
      </trkpt>
      <trkpt lat="49.51531" lon="-1.28595">
        <ele>3.5</ele>
        <time>2017-09-07T12:19:26Z</time>
      </trkpt>
      <trkpt lat="49.51539" lon="-1.28578">
        <ele>3.02</ele>
        <time>2017-09-07T12:19:45Z</time>
      </trkpt>
      <trkpt lat="49.5154" lon="-1.28579">
        <ele>5.42</ele>
        <time>2017-09-07T12:20:02Z</time>
      </trkpt>
      <trkpt lat="49.5154" lon="-1.28578">
        <ele>4.94</ele>
        <time>2017-09-07T12:20:24Z</time>
      </trkpt>
      <trkpt lat="49.51542" lon="-1.2858">
        <ele>3.5</ele>
        <time>2017-09-07T12:20:40Z</time>
      </trkpt>
      <trkpt lat="49.51545" lon="-1.28584">
        <ele>3.02</ele>
        <time>2017-09-07T12:20:48Z</time>
      </trkpt>
      <trkpt lat="49.51557" lon="-1.28595">
        <ele>1.58</ele>
        <time>2017-09-07T12:21:04Z</time>
      </trkpt>
      <trkpt lat="49.51559" lon="-1.28616">
        <ele>1.58</ele>
        <time>2017-09-07T12:21:21Z</time>
      </trkpt>
      <trkpt lat="49.51561" lon="-1.28623">
        <ele>4.46</ele>
        <time>2017-09-07T12:21:35Z</time>
      </trkpt>
      <trkpt lat="49.5156" lon="-1.28623">
        <ele>3.98</ele>
        <time>2017-09-07T12:21:51Z</time>
      </trkpt>
      <trkpt lat="49.5156" lon="-1.28624">
        <ele>6.87</ele>
        <time>2017-09-07T12:22:22Z</time>
      </trkpt>
      <trkpt lat="49.51583" lon="-1.28635">
        <ele>3.5</ele>
        <time>2017-09-07T12:22:41Z</time>
      </trkpt>
      <trkpt lat="49.51604" lon="-1.28656">
        <ele>3.98</ele>
        <time>2017-09-07T12:23:01Z</time>
      </trkpt>
      <trkpt lat="49.51624" lon="-1.28674">
        <ele>3.5</ele>
        <time>2017-09-07T12:23:20Z</time>
      </trkpt>
      <trkpt lat="49.51638" lon="-1.28688">
        <ele>3.02</ele>
        <time>2017-09-07T12:23:37Z</time>
      </trkpt>
      <trkpt lat="49.51655" lon="-1.28703">
        <ele>2.54</ele>
        <time>2017-09-07T12:23:54Z</time>
      </trkpt>
      <trkpt lat="49.51675" lon="-1.28724">
        <ele>3.98</ele>
        <time>2017-09-07T12:24:16Z</time>
      </trkpt>
      <trkpt lat="49.51684" lon="-1.28736">
        <ele>3.98</ele>
        <time>2017-09-07T12:24:31Z</time>
      </trkpt>
      <trkpt lat="49.51691" lon="-1.28747">
        <ele>3.98</ele>
        <time>2017-09-07T12:24:46Z</time>
      </trkpt>
      <trkpt lat="49.51697" lon="-1.28751">
        <ele>3.98</ele>
        <time>2017-09-07T12:25:02Z</time>
      </trkpt>
      <trkpt lat="49.51706" lon="-1.28762">
        <ele>3.98</ele>
        <time>2017-09-07T12:25:19Z</time>
      </trkpt>
      <trkpt lat="49.51714" lon="-1.28773">
        <ele>3.5</ele>
        <time>2017-09-07T12:25:33Z</time>
      </trkpt>
      <trkpt lat="49.51717" lon="-1.28783">
        <ele>3.5</ele>
        <time>2017-09-07T12:25:41Z</time>
      </trkpt>
      <trkpt lat="49.51716" lon="-1.28803">
        <ele>4.46</ele>
        <time>2017-09-07T12:25:58Z</time>
      </trkpt>
      <trkpt lat="49.51711" lon="-1.28842">
        <ele>1.58</ele>
        <time>2017-09-07T12:26:19Z</time>
      </trkpt>
      <trkpt lat="49.51706" lon="-1.28889">
        <ele>0.62</ele>
        <time>2017-09-07T12:26:42Z</time>
      </trkpt>
      <trkpt lat="49.51706" lon="-1.28929">
        <ele>0.62</ele>
        <time>2017-09-07T12:27:02Z</time>
      </trkpt>
      <trkpt lat="49.51707" lon="-1.2895">
        <ele>0.14</ele>
        <time>2017-09-07T12:27:15Z</time>
      </trkpt>
      <trkpt lat="49.51709" lon="-1.28974">
        <ele>-3.23</ele>
        <time>2017-09-07T12:27:31Z</time>
      </trkpt>
      <trkpt lat="49.51709" lon="-1.29">
        <ele>-4.19</ele>
        <time>2017-09-07T12:27:47Z</time>
      </trkpt>
      <trkpt lat="49.51712" lon="-1.29031">
        <ele>-0.82</ele>
        <time>2017-09-07T12:28:06Z</time>
      </trkpt>
      <trkpt lat="49.51705" lon="-1.29057">
        <ele>0.62</ele>
        <time>2017-09-07T12:28:27Z</time>
      </trkpt>
      <trkpt lat="49.51696" lon="-1.29074">
        <ele>2.54</ele>
        <time>2017-09-07T12:28:43Z</time>
      </trkpt>
      <trkpt lat="49.51683" lon="-1.29095">
        <ele>4.94</ele>
        <time>2017-09-07T12:29:01Z</time>
      </trkpt>
      <trkpt lat="49.51665" lon="-1.29117">
        <ele>6.39</ele>
        <time>2017-09-07T12:29:22Z</time>
      </trkpt>
      <trkpt lat="49.51648" lon="-1.29146">
        <ele>6.87</ele>
        <time>2017-09-07T12:29:45Z</time>
      </trkpt>
      <trkpt lat="49.51636" lon="-1.29168">
        <ele>7.83</ele>
        <time>2017-09-07T12:30:04Z</time>
      </trkpt>
      <trkpt lat="49.51621" lon="-1.29194">
        <ele>5.42</ele>
        <time>2017-09-07T12:30:26Z</time>
      </trkpt>
      <trkpt lat="49.51618" lon="-1.29211">
        <ele>1.58</ele>
        <time>2017-09-07T12:30:37Z</time>
      </trkpt>
      <trkpt lat="49.51626" lon="-1.2924">
        <ele>5.42</ele>
        <time>2017-09-07T12:30:56Z</time>
      </trkpt>
      <trkpt lat="49.51636" lon="-1.29267">
        <ele>5.91</ele>
        <time>2017-09-07T12:31:15Z</time>
      </trkpt>
      <trkpt lat="49.51644" lon="-1.29287">
        <ele>6.39</ele>
        <time>2017-09-07T12:31:31Z</time>
      </trkpt>
      <trkpt lat="49.51654" lon="-1.29288">
        <ele>5.42</ele>
        <time>2017-09-07T12:31:42Z</time>
      </trkpt>
      <trkpt lat="49.51665" lon="-1.29274">
        <ele>6.87</ele>
        <time>2017-09-07T12:31:58Z</time>
      </trkpt>
      <trkpt lat="49.51668" lon="-1.29273">
        <ele>8.31</ele>
        <time>2017-09-07T12:32:10Z</time>
      </trkpt>
      <trkpt lat="49.51678" lon="-1.2926">
        <ele>7.83</ele>
        <time>2017-09-07T12:32:26Z</time>
      </trkpt>
      <trkpt lat="49.51682" lon="-1.29256">
        <ele>6.87</ele>
        <time>2017-09-07T12:32:31Z</time>
      </trkpt>
      <trkpt lat="49.51704" lon="-1.29242">
        <ele>6.39</ele>
        <time>2017-09-07T12:32:54Z</time>
      </trkpt>
      <trkpt lat="49.5172" lon="-1.29232">
        <ele>5.91</ele>
        <time>2017-09-07T12:33:11Z</time>
      </trkpt>
      <trkpt lat="49.5174" lon="-1.29219">
        <ele>5.91</ele>
        <time>2017-09-07T12:33:29Z</time>
      </trkpt>
      <trkpt lat="49.51762" lon="-1.29206">
        <ele>5.42</ele>
        <time>2017-09-07T12:33:50Z</time>
      </trkpt>
      <trkpt lat="49.51786" lon="-1.29196">
        <ele>5.91</ele>
        <time>2017-09-07T12:34:12Z</time>
      </trkpt>
      <trkpt lat="49.51795" lon="-1.29188">
        <ele>5.91</ele>
        <time>2017-09-07T12:34:25Z</time>
      </trkpt>
      <trkpt lat="49.51803" lon="-1.29183">
        <ele>6.39</ele>
        <time>2017-09-07T12:34:39Z</time>
      </trkpt>
      <trkpt lat="49.51812" lon="-1.29171">
        <ele>6.39</ele>
        <time>2017-09-07T12:34:56Z</time>
      </trkpt>
      <trkpt lat="49.51819" lon="-1.29145">
        <ele>6.87</ele>
        <time>2017-09-07T12:35:14Z</time>
      </trkpt>
      <trkpt lat="49.51832" lon="-1.29129">
        <ele>6.87</ele>
        <time>2017-09-07T12:35:31Z</time>
      </trkpt>
      <trkpt lat="49.51843" lon="-1.29106">
        <ele>7.83</ele>
        <time>2017-09-07T12:35:50Z</time>
      </trkpt>
      <trkpt lat="49.51849" lon="-1.29074">
        <ele>7.35</ele>
        <time>2017-09-07T12:36:12Z</time>
      </trkpt>
      <trkpt lat="49.51853" lon="-1.2905">
        <ele>8.79</ele>
        <time>2017-09-07T12:36:31Z</time>
      </trkpt>
      <trkpt lat="49.51857" lon="-1.29045">
        <ele>8.79</ele>
        <time>2017-09-07T12:36:44Z</time>
      </trkpt>
      <trkpt lat="49.51864" lon="-1.29037">
        <ele>8.31</ele>
        <time>2017-09-07T12:36:53Z</time>
      </trkpt>
      <trkpt lat="49.5187" lon="-1.29034">
        <ele>8.31</ele>
        <time>2017-09-07T12:36:59Z</time>
      </trkpt>
      <trkpt lat="49.51877" lon="-1.29032">
        <ele>8.79</ele>
        <time>2017-09-07T12:37:17Z</time>
      </trkpt>
      <trkpt lat="49.51876" lon="-1.29032">
        <ele>8.79</ele>
        <time>2017-09-07T12:37:36Z</time>
      </trkpt>
      <trkpt lat="49.51875" lon="-1.29033">
        <ele>8.79</ele>
        <time>2017-09-07T12:37:56Z</time>
      </trkpt>
      <trkpt lat="49.51874" lon="-1.29032">
        <ele>8.31</ele>
        <time>2017-09-07T12:38:26Z</time>
      </trkpt>
      <trkpt lat="49.51879" lon="-1.29031">
        <ele>7.83</ele>
        <time>2017-09-07T12:38:41Z</time>
      </trkpt>
      <trkpt lat="49.51889" lon="-1.2903">
        <ele>6.39</ele>
        <time>2017-09-07T12:39:06Z</time>
      </trkpt>
      <trkpt lat="49.51904" lon="-1.2902">
        <ele>5.91</ele>
        <time>2017-09-07T12:39:25Z</time>
      </trkpt>
      <trkpt lat="49.51907" lon="-1.29017">
        <ele>5.91</ele>
        <time>2017-09-07T12:39:29Z</time>
      </trkpt>
      <trkpt lat="49.51923" lon="-1.29001">
        <ele>5.91</ele>
        <time>2017-09-07T12:39:47Z</time>
      </trkpt>
      <trkpt lat="49.51938" lon="-1.28988">
        <ele>6.39</ele>
        <time>2017-09-07T12:40:05Z</time>
      </trkpt>
      <trkpt lat="49.51946" lon="-1.28987">
        <ele>6.39</ele>
        <time>2017-09-07T12:40:14Z</time>
      </trkpt>
      <trkpt lat="49.51962" lon="-1.28995">
        <ele>5.42</ele>
        <time>2017-09-07T12:40:33Z</time>
      </trkpt>
      <trkpt lat="49.5198" lon="-1.29003">
        <ele>3.5</ele>
        <time>2017-09-07T12:40:51Z</time>
      </trkpt>
      <trkpt lat="49.51999" lon="-1.29011">
        <ele>4.46</ele>
        <time>2017-09-07T12:41:10Z</time>
      </trkpt>
      <trkpt lat="49.52011" lon="-1.29017">
        <ele>5.91</ele>
        <time>2017-09-07T12:41:22Z</time>
      </trkpt>
      <trkpt lat="49.52031" lon="-1.29029">
        <ele>6.39</ele>
        <time>2017-09-07T12:41:43Z</time>
      </trkpt>
      <trkpt lat="49.52049" lon="-1.29041">
        <ele>3.98</ele>
        <time>2017-09-07T12:42:03Z</time>
      </trkpt>
      <trkpt lat="49.5205" lon="-1.29042">
        <ele>3.98</ele>
        <time>2017-09-07T12:42:04Z</time>
      </trkpt>
      <trkpt lat="49.52068" lon="-1.29048">
        <ele>5.42</ele>
        <time>2017-09-07T12:42:23Z</time>
      </trkpt>
      <trkpt lat="49.52086" lon="-1.29059">
        <ele>2.06</ele>
        <time>2017-09-07T12:42:42Z</time>
      </trkpt>
      <trkpt lat="49.52105" lon="-1.29072">
        <ele>1.58</ele>
        <time>2017-09-07T12:43:02Z</time>
      </trkpt>
      <trkpt lat="49.52123" lon="-1.29081">
        <ele>3.02</ele>
        <time>2017-09-07T12:43:21Z</time>
      </trkpt>
      <trkpt lat="49.52142" lon="-1.2909">
        <ele>3.02</ele>
        <time>2017-09-07T12:43:40Z</time>
      </trkpt>
      <trkpt lat="49.5216" lon="-1.291">
        <ele>3.02</ele>
        <time>2017-09-07T12:43:58Z</time>
      </trkpt>
      <trkpt lat="49.5218" lon="-1.29113">
        <ele>3.98</ele>
        <time>2017-09-07T12:44:18Z</time>
      </trkpt>
      <trkpt lat="49.52196" lon="-1.2912">
        <ele>3.98</ele>
        <time>2017-09-07T12:44:35Z</time>
      </trkpt>
      <trkpt lat="49.52216" lon="-1.29133">
        <ele>2.54</ele>
        <time>2017-09-07T12:44:55Z</time>
      </trkpt>
      <trkpt lat="49.52233" lon="-1.29149">
        <ele>2.06</ele>
        <time>2017-09-07T12:45:14Z</time>
      </trkpt>
      <trkpt lat="49.52249" lon="-1.2916">
        <ele>2.54</ele>
        <time>2017-09-07T12:45:31Z</time>
      </trkpt>
      <trkpt lat="49.52262" lon="-1.29171">
        <ele>2.54</ele>
        <time>2017-09-07T12:45:45Z</time>
      </trkpt>
      <trkpt lat="49.5228" lon="-1.29189">
        <ele>2.06</ele>
        <time>2017-09-07T12:46:05Z</time>
      </trkpt>
      <trkpt lat="49.52297" lon="-1.29207">
        <ele>2.54</ele>
        <time>2017-09-07T12:46:23Z</time>
      </trkpt>
      <trkpt lat="49.52311" lon="-1.29225">
        <ele>2.54</ele>
        <time>2017-09-07T12:46:40Z</time>
      </trkpt>
      <trkpt lat="49.52327" lon="-1.29245">
        <ele>2.54</ele>
        <time>2017-09-07T12:46:58Z</time>
      </trkpt>
      <trkpt lat="49.52342" lon="-1.29261">
        <ele>3.02</ele>
        <time>2017-09-07T12:47:14Z</time>
      </trkpt>
      <trkpt lat="49.52362" lon="-1.29284">
        <ele>3.02</ele>
        <time>2017-09-07T12:47:35Z</time>
      </trkpt>
      <trkpt lat="49.5237" lon="-1.29294">
        <ele>3.02</ele>
        <time>2017-09-07T12:47:45Z</time>
      </trkpt>
      <trkpt lat="49.52381" lon="-1.29305">
        <ele>2.54</ele>
        <time>2017-09-07T12:47:57Z</time>
      </trkpt>
      <trkpt lat="49.52395" lon="-1.29322">
        <ele>0.62</ele>
        <time>2017-09-07T12:48:14Z</time>
      </trkpt>
      <trkpt lat="49.524" lon="-1.29325">
        <ele>3.5</ele>
        <time>2017-09-07T12:48:28Z</time>
      </trkpt>
      <trkpt lat="49.52402" lon="-1.29329">
        <ele>3.5</ele>
        <time>2017-09-07T12:48:45Z</time>
      </trkpt>
      <trkpt lat="49.52413" lon="-1.29343">
        <ele>3.02</ele>
        <time>2017-09-07T12:49:01Z</time>
      </trkpt>
      <trkpt lat="49.52428" lon="-1.29361">
        <ele>3.02</ele>
        <time>2017-09-07T12:49:19Z</time>
      </trkpt>
      <trkpt lat="49.52443" lon="-1.2938">
        <ele>3.02</ele>
        <time>2017-09-07T12:49:38Z</time>
      </trkpt>
      <trkpt lat="49.52458" lon="-1.29396">
        <ele>3.02</ele>
        <time>2017-09-07T12:49:56Z</time>
      </trkpt>
      <trkpt lat="49.52475" lon="-1.29412">
        <ele>3.02</ele>
        <time>2017-09-07T12:50:16Z</time>
      </trkpt>
      <trkpt lat="49.52485" lon="-1.2942">
        <ele>3.02</ele>
        <time>2017-09-07T12:50:26Z</time>
      </trkpt>
      <trkpt lat="49.52504" lon="-1.29439">
        <ele>3.02</ele>
        <time>2017-09-07T12:50:46Z</time>
      </trkpt>
      <trkpt lat="49.52521" lon="-1.29456">
        <ele>3.5</ele>
        <time>2017-09-07T12:51:04Z</time>
      </trkpt>
      <trkpt lat="49.52538" lon="-1.29472">
        <ele>3.02</ele>
        <time>2017-09-07T12:51:23Z</time>
      </trkpt>
      <trkpt lat="49.52554" lon="-1.29484">
        <ele>3.5</ele>
        <time>2017-09-07T12:51:40Z</time>
      </trkpt>
      <trkpt lat="49.52569" lon="-1.29495">
        <ele>3.5</ele>
        <time>2017-09-07T12:51:58Z</time>
      </trkpt>
      <trkpt lat="49.52584" lon="-1.29508">
        <ele>2.06</ele>
        <time>2017-09-07T12:52:15Z</time>
      </trkpt>
      <trkpt lat="49.52598" lon="-1.2952">
        <ele>2.54</ele>
        <time>2017-09-07T12:52:31Z</time>
      </trkpt>
      <trkpt lat="49.52609" lon="-1.29534">
        <ele>2.54</ele>
        <time>2017-09-07T12:52:50Z</time>
      </trkpt>
      <trkpt lat="49.52609" lon="-1.29533">
        <ele>3.98</ele>
        <time>2017-09-07T12:53:05Z</time>
      </trkpt>
      <trkpt lat="49.52609" lon="-1.29532">
        <ele>4.94</ele>
        <time>2017-09-07T12:53:24Z</time>
      </trkpt>
      <trkpt lat="49.52608" lon="-1.29532">
        <ele>3.98</ele>
        <time>2017-09-07T12:53:45Z</time>
      </trkpt>
      <trkpt lat="49.5261" lon="-1.29532">
        <ele>4.46</ele>
        <time>2017-09-07T12:54:03Z</time>
      </trkpt>
      <trkpt lat="49.52609" lon="-1.29532">
        <ele>3.98</ele>
        <time>2017-09-07T12:54:23Z</time>
      </trkpt>
      <trkpt lat="49.52609" lon="-1.29533">
        <ele>3.5</ele>
        <time>2017-09-07T12:54:43Z</time>
      </trkpt>
      <trkpt lat="49.5261" lon="-1.29537">
        <ele>3.02</ele>
        <time>2017-09-07T12:55:00Z</time>
      </trkpt>
      <trkpt lat="49.5261" lon="-1.29543">
        <ele>3.02</ele>
        <time>2017-09-07T12:55:04Z</time>
      </trkpt>
      <trkpt lat="49.52618" lon="-1.29559">
        <ele>3.02</ele>
        <time>2017-09-07T12:55:20Z</time>
      </trkpt>
      <trkpt lat="49.52619" lon="-1.2956">
        <ele>3.02</ele>
        <time>2017-09-07T12:55:22Z</time>
      </trkpt>
      <trkpt lat="49.52637" lon="-1.29578">
        <ele>1.1</ele>
        <time>2017-09-07T12:55:43Z</time>
      </trkpt>
      <trkpt lat="49.52654" lon="-1.29595">
        <ele>1.58</ele>
        <time>2017-09-07T12:56:03Z</time>
      </trkpt>
      <trkpt lat="49.5267" lon="-1.29612">
        <ele>2.54</ele>
        <time>2017-09-07T12:56:21Z</time>
      </trkpt>
      <trkpt lat="49.52683" lon="-1.29624">
        <ele>1.58</ele>
        <time>2017-09-07T12:56:39Z</time>
      </trkpt>
      <trkpt lat="49.52691" lon="-1.29636">
        <ele>1.58</ele>
        <time>2017-09-07T12:56:51Z</time>
      </trkpt>
      <trkpt lat="49.52707" lon="-1.29658">
        <ele>0.62</ele>
        <time>2017-09-07T12:57:11Z</time>
      </trkpt>
      <trkpt lat="49.5271" lon="-1.29662">
        <ele>0.14</ele>
        <time>2017-09-07T12:57:16Z</time>
      </trkpt>
      <trkpt lat="49.52728" lon="-1.29684">
        <ele>-0.34</ele>
        <time>2017-09-07T12:57:37Z</time>
      </trkpt>
      <trkpt lat="49.52739" lon="-1.29697">
        <ele>-1.3</ele>
        <time>2017-09-07T12:57:50Z</time>
      </trkpt>
      <trkpt lat="49.52756" lon="-1.29714">
        <ele>-1.3</ele>
        <time>2017-09-07T12:58:09Z</time>
      </trkpt>
      <trkpt lat="49.5277" lon="-1.29726">
        <ele>-0.82</ele>
        <time>2017-09-07T12:58:23Z</time>
      </trkpt>
      <trkpt lat="49.52786" lon="-1.29743">
        <ele>-0.82</ele>
        <time>2017-09-07T12:58:41Z</time>
      </trkpt>
      <trkpt lat="49.52789" lon="-1.29746">
        <ele>-0.34</ele>
        <time>2017-09-07T12:58:45Z</time>
      </trkpt>
      <trkpt lat="49.52804" lon="-1.29764">
        <ele>-0.82</ele>
        <time>2017-09-07T12:59:03Z</time>
      </trkpt>
      <trkpt lat="49.52817" lon="-1.29778">
        <ele>0.62</ele>
        <time>2017-09-07T12:59:22Z</time>
      </trkpt>
      <trkpt lat="49.52816" lon="-1.29783">
        <ele>1.58</ele>
        <time>2017-09-07T12:59:28Z</time>
      </trkpt>
      <trkpt lat="49.52811" lon="-1.29793">
        <ele>3.02</ele>
        <time>2017-09-07T12:59:42Z</time>
      </trkpt>
      <trkpt lat="49.52804" lon="-1.29801">
        <ele>3.02</ele>
        <time>2017-09-07T12:59:52Z</time>
      </trkpt>
      <trkpt lat="49.52786" lon="-1.29826">
        <ele>2.54</ele>
        <time>2017-09-07T13:00:13Z</time>
      </trkpt>
      <trkpt lat="49.52769" lon="-1.29849">
        <ele>2.06</ele>
        <time>2017-09-07T13:00:34Z</time>
      </trkpt>
      <trkpt lat="49.52751" lon="-1.29873">
        <ele>1.58</ele>
        <time>2017-09-07T13:00:57Z</time>
      </trkpt>
      <trkpt lat="49.52735" lon="-1.29895">
        <ele>1.58</ele>
        <time>2017-09-07T13:01:17Z</time>
      </trkpt>
      <trkpt lat="49.52719" lon="-1.29916">
        <ele>2.06</ele>
        <time>2017-09-07T13:01:38Z</time>
      </trkpt>
      <trkpt lat="49.52699" lon="-1.2994">
        <ele>2.06</ele>
        <time>2017-09-07T13:02:01Z</time>
      </trkpt>
      <trkpt lat="49.52685" lon="-1.29957">
        <ele>0.62</ele>
        <time>2017-09-07T13:02:19Z</time>
      </trkpt>
      <trkpt lat="49.5267" lon="-1.29978">
        <ele>1.58</ele>
        <time>2017-09-07T13:02:37Z</time>
      </trkpt>
      <trkpt lat="49.52656" lon="-1.29998">
        <ele>0.62</ele>
        <time>2017-09-07T13:02:55Z</time>
      </trkpt>
      <trkpt lat="49.52643" lon="-1.30018">
        <ele>-0.82</ele>
        <time>2017-09-07T13:03:14Z</time>
      </trkpt>
      <trkpt lat="49.52632" lon="-1.30035">
        <ele>-2.75</ele>
        <time>2017-09-07T13:03:31Z</time>
      </trkpt>
      <trkpt lat="49.5262" lon="-1.30051">
        <ele>-1.79</ele>
        <time>2017-09-07T13:03:46Z</time>
      </trkpt>
      <trkpt lat="49.52607" lon="-1.30071">
        <ele>-2.27</ele>
        <time>2017-09-07T13:04:02Z</time>
      </trkpt>
      <trkpt lat="49.52589" lon="-1.30097">
        <ele>1.58</ele>
        <time>2017-09-07T13:04:22Z</time>
      </trkpt>
      <trkpt lat="49.52571" lon="-1.30123">
        <ele>3.5</ele>
        <time>2017-09-07T13:04:43Z</time>
      </trkpt>
      <trkpt lat="49.52553" lon="-1.30147">
        <ele>4.46</ele>
        <time>2017-09-07T13:05:03Z</time>
      </trkpt>
      <trkpt lat="49.52536" lon="-1.30172">
        <ele>5.42</ele>
        <time>2017-09-07T13:05:24Z</time>
      </trkpt>
      <trkpt lat="49.52515" lon="-1.302">
        <ele>4.94</ele>
        <time>2017-09-07T13:05:48Z</time>
      </trkpt>
      <trkpt lat="49.525" lon="-1.30223">
        <ele>5.91</ele>
        <time>2017-09-07T13:06:07Z</time>
      </trkpt>
      <trkpt lat="49.52484" lon="-1.30247">
        <ele>4.94</ele>
        <time>2017-09-07T13:06:27Z</time>
      </trkpt>
      <trkpt lat="49.5247" lon="-1.30269">
        <ele>4.94</ele>
        <time>2017-09-07T13:06:45Z</time>
      </trkpt>
      <trkpt lat="49.52456" lon="-1.30289">
        <ele>4.46</ele>
        <time>2017-09-07T13:07:03Z</time>
      </trkpt>
      <trkpt lat="49.5244" lon="-1.30312">
        <ele>1.1</ele>
        <time>2017-09-07T13:07:24Z</time>
      </trkpt>
      <trkpt lat="49.52427" lon="-1.30332">
        <ele>-0.34</ele>
        <time>2017-09-07T13:07:40Z</time>
      </trkpt>
      <trkpt lat="49.52415" lon="-1.30351">
        <ele>-0.82</ele>
        <time>2017-09-07T13:07:56Z</time>
      </trkpt>
      <trkpt lat="49.52402" lon="-1.3037">
        <ele>0.62</ele>
        <time>2017-09-07T13:08:14Z</time>
      </trkpt>
      <trkpt lat="49.52393" lon="-1.30384">
        <ele>0.62</ele>
        <time>2017-09-07T13:08:30Z</time>
      </trkpt>
      <trkpt lat="49.52389" lon="-1.30395">
        <ele>0.62</ele>
        <time>2017-09-07T13:08:43Z</time>
      </trkpt>
      <trkpt lat="49.52378" lon="-1.30414">
        <ele>3.02</ele>
        <time>2017-09-07T13:08:59Z</time>
      </trkpt>
      <trkpt lat="49.52367" lon="-1.30434">
        <ele>3.5</ele>
        <time>2017-09-07T13:09:16Z</time>
      </trkpt>
      <trkpt lat="49.52357" lon="-1.30454">
        <ele>1.58</ele>
        <time>2017-09-07T13:09:32Z</time>
      </trkpt>
      <trkpt lat="49.52342" lon="-1.30478">
        <ele>3.02</ele>
        <time>2017-09-07T13:09:52Z</time>
      </trkpt>
      <trkpt lat="49.52331" lon="-1.30495">
        <ele>3.02</ele>
        <time>2017-09-07T13:10:08Z</time>
      </trkpt>
      <trkpt lat="49.52319" lon="-1.30517">
        <ele>4.46</ele>
        <time>2017-09-07T13:10:25Z</time>
      </trkpt>
      <trkpt lat="49.52308" lon="-1.30536">
        <ele>3.98</ele>
        <time>2017-09-07T13:10:40Z</time>
      </trkpt>
      <trkpt lat="49.52295" lon="-1.30559">
        <ele>3.98</ele>
        <time>2017-09-07T13:10:58Z</time>
      </trkpt>
      <trkpt lat="49.52287" lon="-1.30569">
        <ele>3.02</ele>
        <time>2017-09-07T13:11:14Z</time>
      </trkpt>
      <trkpt lat="49.52285" lon="-1.30577">
        <ele>2.54</ele>
        <time>2017-09-07T13:11:29Z</time>
      </trkpt>
      <trkpt lat="49.52274" lon="-1.30601">
        <ele>2.06</ele>
        <time>2017-09-07T13:11:48Z</time>
      </trkpt>
      <trkpt lat="49.52258" lon="-1.3063">
        <ele>3.5</ele>
        <time>2017-09-07T13:12:09Z</time>
      </trkpt>
      <trkpt lat="49.52253" lon="-1.3064">
        <ele>3.98</ele>
        <time>2017-09-07T13:12:22Z</time>
      </trkpt>
      <trkpt lat="49.52244" lon="-1.3066">
        <ele>4.46</ele>
        <time>2017-09-07T13:12:38Z</time>
      </trkpt>
      <trkpt lat="49.52243" lon="-1.30661">
        <ele>4.46</ele>
        <time>2017-09-07T13:12:39Z</time>
      </trkpt>
      <trkpt lat="49.52234" lon="-1.30679">
        <ele>3.02</ele>
        <time>2017-09-07T13:12:56Z</time>
      </trkpt>
      <trkpt lat="49.52227" lon="-1.30693">
        <ele>2.54</ele>
        <time>2017-09-07T13:13:06Z</time>
      </trkpt>
      <trkpt lat="49.5222" lon="-1.30707">
        <ele>3.5</ele>
        <time>2017-09-07T13:13:18Z</time>
      </trkpt>
      <trkpt lat="49.52211" lon="-1.30723">
        <ele>5.42</ele>
        <time>2017-09-07T13:13:31Z</time>
      </trkpt>
      <trkpt lat="49.52199" lon="-1.30741">
        <ele>4.46</ele>
        <time>2017-09-07T13:13:48Z</time>
      </trkpt>
      <trkpt lat="49.52185" lon="-1.30763">
        <ele>6.39</ele>
        <time>2017-09-07T13:14:07Z</time>
      </trkpt>
      <trkpt lat="49.52178" lon="-1.30779">
        <ele>9.27</ele>
        <time>2017-09-07T13:14:21Z</time>
      </trkpt>
      <trkpt lat="49.52169" lon="-1.30798">
        <ele>7.83</ele>
        <time>2017-09-07T13:14:37Z</time>
      </trkpt>
      <trkpt lat="49.52162" lon="-1.30816">
        <ele>5.91</ele>
        <time>2017-09-07T13:14:52Z</time>
      </trkpt>
      <trkpt lat="49.52154" lon="-1.30837">
        <ele>4.94</ele>
        <time>2017-09-07T13:15:06Z</time>
      </trkpt>
      <trkpt lat="49.52143" lon="-1.30859">
        <ele>3.98</ele>
        <time>2017-09-07T13:15:24Z</time>
      </trkpt>
      <trkpt lat="49.52132" lon="-1.30883">
        <ele>2.54</ele>
        <time>2017-09-07T13:15:41Z</time>
      </trkpt>
      <trkpt lat="49.52122" lon="-1.30899">
        <ele>3.5</ele>
        <time>2017-09-07T13:15:57Z</time>
      </trkpt>
      <trkpt lat="49.52113" lon="-1.30916">
        <ele>4.94</ele>
        <time>2017-09-07T13:16:11Z</time>
      </trkpt>
      <trkpt lat="49.52104" lon="-1.30933">
        <ele>5.91</ele>
        <time>2017-09-07T13:16:27Z</time>
      </trkpt>
      <trkpt lat="49.52091" lon="-1.30953">
        <ele>6.39</ele>
        <time>2017-09-07T13:16:46Z</time>
      </trkpt>
      <trkpt lat="49.5207" lon="-1.30972">
        <ele>5.91</ele>
        <time>2017-09-07T13:17:08Z</time>
      </trkpt>
      <trkpt lat="49.52054" lon="-1.30964">
        <ele>5.91</ele>
        <time>2017-09-07T13:17:27Z</time>
      </trkpt>
      <trkpt lat="49.52032" lon="-1.30948">
        <ele>5.91</ele>
        <time>2017-09-07T13:17:49Z</time>
      </trkpt>
      <trkpt lat="49.52007" lon="-1.30932">
        <ele>5.42</ele>
        <time>2017-09-07T13:18:14Z</time>
      </trkpt>
      <trkpt lat="49.51986" lon="-1.30926">
        <ele>6.87</ele>
        <time>2017-09-07T13:18:34Z</time>
      </trkpt>
      <trkpt lat="49.51988" lon="-1.30927">
        <ele>6.87</ele>
        <time>2017-09-07T13:18:53Z</time>
      </trkpt>
      <trkpt lat="49.51989" lon="-1.30928">
        <ele>7.83</ele>
        <time>2017-09-07T13:19:12Z</time>
      </trkpt>
      <trkpt lat="49.5199" lon="-1.3093">
        <ele>6.87</ele>
        <time>2017-09-07T13:19:39Z</time>
      </trkpt>
      <trkpt lat="49.51989" lon="-1.30931">
        <ele>8.31</ele>
        <time>2017-09-07T13:20:01Z</time>
      </trkpt>
      <trkpt lat="49.5199" lon="-1.3093">
        <ele>7.83</ele>
        <time>2017-09-07T13:20:18Z</time>
      </trkpt>
      <trkpt lat="49.51986" lon="-1.30935">
        <ele>8.31</ele>
        <time>2017-09-07T13:20:31Z</time>
      </trkpt>
      <trkpt lat="49.51985" lon="-1.30936">
        <ele>9.27</ele>
        <time>2017-09-07T13:20:43Z</time>
      </trkpt>
      <trkpt lat="49.51983" lon="-1.30949">
        <ele>9.27</ele>
        <time>2017-09-07T13:20:58Z</time>
      </trkpt>
      <trkpt lat="49.51982" lon="-1.3096">
        <ele>9.27</ele>
        <time>2017-09-07T13:21:05Z</time>
      </trkpt>
      <trkpt lat="49.51982" lon="-1.30983">
        <ele>8.31</ele>
        <time>2017-09-07T13:21:20Z</time>
      </trkpt>
      <trkpt lat="49.51983" lon="-1.30994">
        <ele>7.83</ele>
        <time>2017-09-07T13:21:26Z</time>
      </trkpt>
      <trkpt lat="49.51984" lon="-1.31022">
        <ele>7.83</ele>
        <time>2017-09-07T13:21:42Z</time>
      </trkpt>
      <trkpt lat="49.51982" lon="-1.31058">
        <ele>12.15</ele>
        <time>2017-09-07T13:22:01Z</time>
      </trkpt>
      <trkpt lat="49.51984" lon="-1.3108">
        <ele>13.6</ele>
        <time>2017-09-07T13:22:17Z</time>
      </trkpt>
      <trkpt lat="49.51984" lon="-1.31105">
        <ele>15.04</ele>
        <time>2017-09-07T13:22:32Z</time>
      </trkpt>
      <trkpt lat="49.51982" lon="-1.31129">
        <ele>16</ele>
        <time>2017-09-07T13:22:46Z</time>
      </trkpt>
      <trkpt lat="49.5198" lon="-1.31145">
        <ele>19.36</ele>
        <time>2017-09-07T13:23:01Z</time>
      </trkpt>
      <trkpt lat="49.51978" lon="-1.31153">
        <ele>19.36</ele>
        <time>2017-09-07T13:23:10Z</time>
      </trkpt>
      <trkpt lat="49.51974" lon="-1.31172">
        <ele>17.44</ele>
        <time>2017-09-07T13:23:23Z</time>
      </trkpt>
      <trkpt lat="49.51968" lon="-1.31197">
        <ele>16.96</ele>
        <time>2017-09-07T13:23:39Z</time>
      </trkpt>
      <trkpt lat="49.51964" lon="-1.31207">
        <ele>16.48</ele>
        <time>2017-09-07T13:23:46Z</time>
      </trkpt>
      <trkpt lat="49.51953" lon="-1.3123">
        <ele>17.92</ele>
        <time>2017-09-07T13:24:03Z</time>
      </trkpt>
      <trkpt lat="49.51945" lon="-1.31249">
        <ele>16.96</ele>
        <time>2017-09-07T13:24:19Z</time>
      </trkpt>
      <trkpt lat="49.51938" lon="-1.31264">
        <ele>15.52</ele>
        <time>2017-09-07T13:24:34Z</time>
      </trkpt>
      <trkpt lat="49.51938" lon="-1.31252">
        <ele>15.52</ele>
        <time>2017-09-07T13:24:50Z</time>
      </trkpt>
      <trkpt lat="49.5194" lon="-1.31235">
        <ele>16</ele>
        <time>2017-09-07T13:25:04Z</time>
      </trkpt>
      <trkpt lat="49.5194" lon="-1.31232">
        <ele>16.48</ele>
        <time>2017-09-07T13:25:06Z</time>
      </trkpt>
      <trkpt lat="49.51934" lon="-1.31207">
        <ele>17.44</ele>
        <time>2017-09-07T13:25:22Z</time>
      </trkpt>
      <trkpt lat="49.51932" lon="-1.312">
        <ele>17.92</ele>
        <time>2017-09-07T13:25:40Z</time>
      </trkpt>
      <trkpt lat="49.51929" lon="-1.31208">
        <ele>17.92</ele>
        <time>2017-09-07T13:26:05Z</time>
      </trkpt>
      <trkpt lat="49.51931" lon="-1.31205">
        <ele>16</ele>
        <time>2017-09-07T13:26:17Z</time>
      </trkpt>
      <trkpt lat="49.51931" lon="-1.31205">
        <ele>18.88</ele>
        <time>2017-09-07T13:26:35Z</time>
      </trkpt>
      <trkpt lat="49.51931" lon="-1.31203">
        <ele>21.29</ele>
        <time>2017-09-07T13:27:01Z</time>
      </trkpt>
      <trkpt lat="49.5193" lon="-1.31205">
        <ele>19.36</ele>
        <time>2017-09-07T13:27:34Z</time>
      </trkpt>
      <trkpt lat="49.51933" lon="-1.31209">
        <ele>16.48</ele>
        <time>2017-09-07T13:27:49Z</time>
      </trkpt>
      <trkpt lat="49.5194" lon="-1.31229">
        <ele>13.12</ele>
        <time>2017-09-07T13:28:05Z</time>
      </trkpt>
      <trkpt lat="49.51939" lon="-1.31242">
        <ele>11.67</ele>
        <time>2017-09-07T13:28:13Z</time>
      </trkpt>
      <trkpt lat="49.51931" lon="-1.31259">
        <ele>10.23</ele>
        <time>2017-09-07T13:28:29Z</time>
      </trkpt>
      <trkpt lat="49.5193" lon="-1.31269">
        <ele>9.27</ele>
        <time>2017-09-07T13:28:34Z</time>
      </trkpt>
      <trkpt lat="49.51928" lon="-1.31305">
        <ele>13.12</ele>
        <time>2017-09-07T13:28:53Z</time>
      </trkpt>
      <trkpt lat="49.51927" lon="-1.31336">
        <ele>13.6</ele>
        <time>2017-09-07T13:29:13Z</time>
      </trkpt>
      <trkpt lat="49.51925" lon="-1.31371">
        <ele>15.52</ele>
        <time>2017-09-07T13:29:34Z</time>
      </trkpt>
      <trkpt lat="49.51918" lon="-1.31388">
        <ele>16</ele>
        <time>2017-09-07T13:29:49Z</time>
      </trkpt>
      <trkpt lat="49.5191" lon="-1.31385">
        <ele>17.92</ele>
        <time>2017-09-07T13:30:04Z</time>
      </trkpt>
      <trkpt lat="49.51908" lon="-1.31385">
        <ele>18.4</ele>
        <time>2017-09-07T13:30:07Z</time>
      </trkpt>
      <trkpt lat="49.51901" lon="-1.31384">
        <ele>18.4</ele>
        <time>2017-09-07T13:30:25Z</time>
      </trkpt>
      <trkpt lat="49.51886" lon="-1.3138">
        <ele>12.15</ele>
        <time>2017-09-07T13:30:42Z</time>
      </trkpt>
      <trkpt lat="49.51876" lon="-1.31397">
        <ele>8.79</ele>
        <time>2017-09-07T13:30:57Z</time>
      </trkpt>
      <trkpt lat="49.51872" lon="-1.31405">
        <ele>6.39</ele>
        <time>2017-09-07T13:31:04Z</time>
      </trkpt>
      <trkpt lat="49.51863" lon="-1.31426">
        <ele>2.54</ele>
        <time>2017-09-07T13:31:19Z</time>
      </trkpt>
      <trkpt lat="49.51855" lon="-1.31448">
        <ele>4.94</ele>
        <time>2017-09-07T13:31:33Z</time>
      </trkpt>
      <trkpt lat="49.51849" lon="-1.3147">
        <ele>2.54</ele>
        <time>2017-09-07T13:31:48Z</time>
      </trkpt>
      <trkpt lat="49.51842" lon="-1.31492">
        <ele>1.1</ele>
        <time>2017-09-07T13:32:02Z</time>
      </trkpt>
      <trkpt lat="49.51837" lon="-1.31509">
        <ele>2.54</ele>
        <time>2017-09-07T13:32:15Z</time>
      </trkpt>
      <trkpt lat="49.51831" lon="-1.31523">
        <ele>0.62</ele>
        <time>2017-09-07T13:32:27Z</time>
      </trkpt>
      <trkpt lat="49.51819" lon="-1.31544">
        <ele>1.58</ele>
        <time>2017-09-07T13:32:42Z</time>
      </trkpt>
      <trkpt lat="49.51812" lon="-1.31558">
        <ele>0.14</ele>
        <time>2017-09-07T13:32:55Z</time>
      </trkpt>
      <trkpt lat="49.51805" lon="-1.31574">
        <ele>-0.34</ele>
        <time>2017-09-07T13:33:08Z</time>
      </trkpt>
      <trkpt lat="49.51793" lon="-1.31599">
        <ele>1.1</ele>
        <time>2017-09-07T13:33:25Z</time>
      </trkpt>
      <trkpt lat="49.51787" lon="-1.31617">
        <ele>2.54</ele>
        <time>2017-09-07T13:33:37Z</time>
      </trkpt>
      <trkpt lat="49.51784" lon="-1.31638">
        <ele>1.1</ele>
        <time>2017-09-07T13:33:52Z</time>
      </trkpt>
      <trkpt lat="49.51779" lon="-1.31657">
        <ele>3.02</ele>
        <time>2017-09-07T13:34:05Z</time>
      </trkpt>
      <trkpt lat="49.51777" lon="-1.31669">
        <ele>2.06</ele>
        <time>2017-09-07T13:34:20Z</time>
      </trkpt>
      <trkpt lat="49.51774" lon="-1.31683">
        <ele>-1.3</ele>
        <time>2017-09-07T13:34:32Z</time>
      </trkpt>
      <trkpt lat="49.51768" lon="-1.3171">
        <ele>-4.19</ele>
        <time>2017-09-07T13:34:48Z</time>
      </trkpt>
      <trkpt lat="49.51761" lon="-1.31733">
        <ele>-4.67</ele>
        <time>2017-09-07T13:35:04Z</time>
      </trkpt>
      <trkpt lat="49.51758" lon="-1.31755">
        <ele>-5.63</ele>
        <time>2017-09-07T13:35:18Z</time>
      </trkpt>
      <trkpt lat="49.51755" lon="-1.31772">
        <ele>-5.63</ele>
        <time>2017-09-07T13:35:34Z</time>
      </trkpt>
      <trkpt lat="49.51752" lon="-1.31784">
        <ele>-5.15</ele>
        <time>2017-09-07T13:35:45Z</time>
      </trkpt>
      <trkpt lat="49.51744" lon="-1.3181">
        <ele>0.14</ele>
        <time>2017-09-07T13:36:00Z</time>
      </trkpt>
      <trkpt lat="49.51735" lon="-1.31818">
        <ele>3.02</ele>
        <time>2017-09-07T13:36:14Z</time>
      </trkpt>
      <trkpt lat="49.51736" lon="-1.31815">
        <ele>3.02</ele>
        <time>2017-09-07T13:36:29Z</time>
      </trkpt>
      <trkpt lat="49.51728" lon="-1.31819">
        <ele>3.02</ele>
        <time>2017-09-07T13:36:55Z</time>
      </trkpt>
      <trkpt lat="49.51718" lon="-1.31826">
        <ele>3.5</ele>
        <time>2017-09-07T13:37:08Z</time>
      </trkpt>
      <trkpt lat="49.51701" lon="-1.31842">
        <ele>4.46</ele>
        <time>2017-09-07T13:37:27Z</time>
      </trkpt>
      <trkpt lat="49.51684" lon="-1.31848">
        <ele>2.54</ele>
        <time>2017-09-07T13:37:46Z</time>
      </trkpt>
      <trkpt lat="49.51682" lon="-1.31849">
        <ele>2.54</ele>
        <time>2017-09-07T13:37:49Z</time>
      </trkpt>
      <trkpt lat="49.5167" lon="-1.31851">
        <ele>2.06</ele>
        <time>2017-09-07T13:38:03Z</time>
      </trkpt>
      <trkpt lat="49.51659" lon="-1.31852">
        <ele>1.1</ele>
        <time>2017-09-07T13:38:16Z</time>
      </trkpt>
      <trkpt lat="49.51654" lon="-1.3185">
        <ele>-1.3</ele>
        <time>2017-09-07T13:38:32Z</time>
      </trkpt>
      <trkpt lat="49.51644" lon="-1.31842">
        <ele>0.62</ele>
        <time>2017-09-07T13:38:47Z</time>
      </trkpt>
      <trkpt lat="49.51643" lon="-1.3184">
        <ele>0.62</ele>
        <time>2017-09-07T13:38:48Z</time>
      </trkpt>
      <trkpt lat="49.51633" lon="-1.31829">
        <ele>0.62</ele>
        <time>2017-09-07T13:39:00Z</time>
      </trkpt>
      <trkpt lat="49.51631" lon="-1.31826">
        <ele>0.14</ele>
        <time>2017-09-07T13:39:03Z</time>
      </trkpt>
      <trkpt lat="49.51622" lon="-1.31817">
        <ele>3.5</ele>
        <time>2017-09-07T13:39:21Z</time>
      </trkpt>
      <trkpt lat="49.51623" lon="-1.31818">
        <ele>4.94</ele>
        <time>2017-09-07T13:39:44Z</time>
      </trkpt>
      <trkpt lat="49.51624" lon="-1.31816">
        <ele>3.02</ele>
        <time>2017-09-07T13:40:05Z</time>
      </trkpt>
      <trkpt lat="49.51625" lon="-1.31811">
        <ele>3.02</ele>
        <time>2017-09-07T13:40:27Z</time>
      </trkpt>
      <trkpt lat="49.51625" lon="-1.31795">
        <ele>3.5</ele>
        <time>2017-09-07T13:40:41Z</time>
      </trkpt>
      <trkpt lat="49.51625" lon="-1.31784">
        <ele>3.02</ele>
        <time>2017-09-07T13:40:53Z</time>
      </trkpt>
      <trkpt lat="49.51628" lon="-1.31766">
        <ele>1.1</ele>
        <time>2017-09-07T13:41:08Z</time>
      </trkpt>
      <trkpt lat="49.5163" lon="-1.31753">
        <ele>0.14</ele>
        <time>2017-09-07T13:41:19Z</time>
      </trkpt>
      <trkpt lat="49.5163" lon="-1.31746">
        <ele>0.62</ele>
        <time>2017-09-07T13:41:25Z</time>
      </trkpt>
      <trkpt lat="49.51636" lon="-1.31724">
        <ele>4.94</ele>
        <time>2017-09-07T13:41:42Z</time>
      </trkpt>
      <trkpt lat="49.51634" lon="-1.31701">
        <ele>3.5</ele>
        <time>2017-09-07T13:41:58Z</time>
      </trkpt>
      <trkpt lat="49.51635" lon="-1.317">
        <ele>3.5</ele>
        <time>2017-09-07T13:41:59Z</time>
      </trkpt>
      <trkpt lat="49.51635" lon="-1.31683">
        <ele>3.5</ele>
        <time>2017-09-07T13:42:12Z</time>
      </trkpt>
      <trkpt lat="49.51638" lon="-1.31673">
        <ele>1.1</ele>
        <time>2017-09-07T13:42:24Z</time>
      </trkpt>
      <trkpt lat="49.5164" lon="-1.31659">
        <ele>0.14</ele>
        <time>2017-09-07T13:42:35Z</time>
      </trkpt>
      <trkpt lat="49.51641" lon="-1.31657">
        <ele>0.14</ele>
        <time>2017-09-07T13:42:37Z</time>
      </trkpt>
      <trkpt lat="49.51643" lon="-1.31641">
        <ele>1.58</ele>
        <time>2017-09-07T13:42:51Z</time>
      </trkpt>
      <trkpt lat="49.51645" lon="-1.31623">
        <ele>4.46</ele>
        <time>2017-09-07T13:43:04Z</time>
      </trkpt>
      <trkpt lat="49.5164" lon="-1.31608">
        <ele>5.42</ele>
        <time>2017-09-07T13:43:17Z</time>
      </trkpt>
      <trkpt lat="49.51626" lon="-1.31591">
        <ele>7.83</ele>
        <time>2017-09-07T13:43:35Z</time>
      </trkpt>
      <trkpt lat="49.51615" lon="-1.31581">
        <ele>10.23</ele>
        <time>2017-09-07T13:43:48Z</time>
      </trkpt>
      <trkpt lat="49.51606" lon="-1.31578">
        <ele>11.67</ele>
        <time>2017-09-07T13:43:59Z</time>
      </trkpt>
      <trkpt lat="49.51599" lon="-1.31573">
        <ele>12.15</ele>
        <time>2017-09-07T13:44:07Z</time>
      </trkpt>
      <trkpt lat="49.51587" lon="-1.31566">
        <ele>15.04</ele>
        <time>2017-09-07T13:44:19Z</time>
      </trkpt>
      <trkpt lat="49.51574" lon="-1.31561">
        <ele>17.92</ele>
        <time>2017-09-07T13:44:32Z</time>
      </trkpt>
      <trkpt lat="49.51563" lon="-1.31558">
        <ele>18.88</ele>
        <time>2017-09-07T13:44:45Z</time>
      </trkpt>
      <trkpt lat="49.51548" lon="-1.31551">
        <ele>21.29</ele>
        <time>2017-09-07T13:45:00Z</time>
      </trkpt>
      <trkpt lat="49.51534" lon="-1.31546">
        <ele>23.69</ele>
        <time>2017-09-07T13:45:14Z</time>
      </trkpt>
      <trkpt lat="49.51519" lon="-1.31544">
        <ele>26.57</ele>
        <time>2017-09-07T13:45:29Z</time>
      </trkpt>
      <trkpt lat="49.51515" lon="-1.31544">
        <ele>29.94</ele>
        <time>2017-09-07T13:45:43Z</time>
      </trkpt>
      <trkpt lat="49.51517" lon="-1.31541">
        <ele>28.5</ele>
        <time>2017-09-07T13:46:09Z</time>
      </trkpt>
      <trkpt lat="49.51519" lon="-1.31541">
        <ele>27.05</ele>
        <time>2017-09-07T13:46:30Z</time>
      </trkpt>
      <trkpt lat="49.51516" lon="-1.31541">
        <ele>28.02</ele>
        <time>2017-09-07T13:46:59Z</time>
      </trkpt>
      <trkpt lat="49.51519" lon="-1.31532">
        <ele>29.94</ele>
        <time>2017-09-07T13:47:21Z</time>
      </trkpt>
      <trkpt lat="49.5152" lon="-1.3153">
        <ele>29.94</ele>
        <time>2017-09-07T13:47:23Z</time>
      </trkpt>
      <trkpt lat="49.5153" lon="-1.31509">
        <ele>28.98</ele>
        <time>2017-09-07T13:47:41Z</time>
      </trkpt>
      <trkpt lat="49.51538" lon="-1.3149">
        <ele>29.94</ele>
        <time>2017-09-07T13:47:55Z</time>
      </trkpt>
      <trkpt lat="49.51546" lon="-1.31471">
        <ele>25.61</ele>
        <time>2017-09-07T13:48:11Z</time>
      </trkpt>
      <trkpt lat="49.51557" lon="-1.31458">
        <ele>16</ele>
        <time>2017-09-07T13:48:27Z</time>
      </trkpt>
      <trkpt lat="49.51564" lon="-1.31429">
        <ele>28.98</ele>
        <time>2017-09-07T13:48:41Z</time>
      </trkpt>
      <trkpt lat="49.51575" lon="-1.31403">
        <ele>33.3</ele>
        <time>2017-09-07T13:49:00Z</time>
      </trkpt>
      <trkpt lat="49.51584" lon="-1.31378">
        <ele>35.23</ele>
        <time>2017-09-07T13:49:19Z</time>
      </trkpt>
      <trkpt lat="49.51594" lon="-1.31355">
        <ele>35.71</ele>
        <time>2017-09-07T13:49:36Z</time>
      </trkpt>
      <trkpt lat="49.51599" lon="-1.3134">
        <ele>35.71</ele>
        <time>2017-09-07T13:49:47Z</time>
      </trkpt>
      <trkpt lat="49.51599" lon="-1.3131">
        <ele>35.23</ele>
        <time>2017-09-07T13:50:04Z</time>
      </trkpt>
      <trkpt lat="49.51595" lon="-1.3128">
        <ele>32.34</ele>
        <time>2017-09-07T13:50:23Z</time>
      </trkpt>
      <trkpt lat="49.5159" lon="-1.31252">
        <ele>32.82</ele>
        <time>2017-09-07T13:50:39Z</time>
      </trkpt>
      <trkpt lat="49.51586" lon="-1.31221">
        <ele>33.78</ele>
        <time>2017-09-07T13:50:58Z</time>
      </trkpt>
      <trkpt lat="49.51582" lon="-1.31196">
        <ele>34.74</ele>
        <time>2017-09-07T13:51:13Z</time>
      </trkpt>
      <trkpt lat="49.5158" lon="-1.31176">
        <ele>32.34</ele>
        <time>2017-09-07T13:51:27Z</time>
      </trkpt>
      <trkpt lat="49.51576" lon="-1.31154">
        <ele>30.9</ele>
        <time>2017-09-07T13:51:40Z</time>
      </trkpt>
      <trkpt lat="49.51572" lon="-1.31122">
        <ele>32.82</ele>
        <time>2017-09-07T13:51:56Z</time>
      </trkpt>
      <trkpt lat="49.51569" lon="-1.31095">
        <ele>33.78</ele>
        <time>2017-09-07T13:52:12Z</time>
      </trkpt>
      <trkpt lat="49.51564" lon="-1.3107">
        <ele>34.74</ele>
        <time>2017-09-07T13:52:26Z</time>
      </trkpt>
      <trkpt lat="49.51561" lon="-1.31045">
        <ele>33.78</ele>
        <time>2017-09-07T13:52:41Z</time>
      </trkpt>
      <trkpt lat="49.51558" lon="-1.31023">
        <ele>31.86</ele>
        <time>2017-09-07T13:52:56Z</time>
      </trkpt>
      <trkpt lat="49.51554" lon="-1.30994">
        <ele>29.46</ele>
        <time>2017-09-07T13:53:12Z</time>
      </trkpt>
      <trkpt lat="49.5155" lon="-1.30958">
        <ele>32.82</ele>
        <time>2017-09-07T13:53:32Z</time>
      </trkpt>
      <trkpt lat="49.51548" lon="-1.30931">
        <ele>31.86</ele>
        <time>2017-09-07T13:53:48Z</time>
      </trkpt>
      <trkpt lat="49.51544" lon="-1.30903">
        <ele>30.42</ele>
        <time>2017-09-07T13:54:04Z</time>
      </trkpt>
      <trkpt lat="49.51539" lon="-1.30872">
        <ele>29.94</ele>
        <time>2017-09-07T13:54:23Z</time>
      </trkpt>
      <trkpt lat="49.51537" lon="-1.30862">
        <ele>30.42</ele>
        <time>2017-09-07T13:54:38Z</time>
      </trkpt>
      <trkpt lat="49.51536" lon="-1.3086">
        <ele>29.46</ele>
        <time>2017-09-07T13:54:41Z</time>
      </trkpt>
      <trkpt lat="49.51534" lon="-1.30849">
        <ele>29.46</ele>
        <time>2017-09-07T13:54:49Z</time>
      </trkpt>
      <trkpt lat="49.5153" lon="-1.30823">
        <ele>28.98</ele>
        <time>2017-09-07T13:55:05Z</time>
      </trkpt>
      <trkpt lat="49.51524" lon="-1.30798">
        <ele>27.05</ele>
        <time>2017-09-07T13:55:21Z</time>
      </trkpt>
      <trkpt lat="49.51522" lon="-1.30791">
        <ele>27.53</ele>
        <time>2017-09-07T13:55:24Z</time>
      </trkpt>
      <trkpt lat="49.51515" lon="-1.30761">
        <ele>28.5</ele>
        <time>2017-09-07T13:55:42Z</time>
      </trkpt>
      <trkpt lat="49.51507" lon="-1.30733">
        <ele>26.57</ele>
        <time>2017-09-07T13:56:02Z</time>
      </trkpt>
      <trkpt lat="49.51506" lon="-1.30732">
        <ele>26.09</ele>
        <time>2017-09-07T13:56:03Z</time>
      </trkpt>
      <trkpt lat="49.51496" lon="-1.30695">
        <ele>25.13</ele>
        <time>2017-09-07T13:56:21Z</time>
      </trkpt>
      <trkpt lat="49.51489" lon="-1.30666">
        <ele>25.61</ele>
        <time>2017-09-07T13:56:38Z</time>
      </trkpt>
      <trkpt lat="49.51485" lon="-1.30652">
        <ele>26.09</ele>
        <time>2017-09-07T13:56:48Z</time>
      </trkpt>
      <trkpt lat="49.51477" lon="-1.3062">
        <ele>24.65</ele>
        <time>2017-09-07T13:57:07Z</time>
      </trkpt>
      <trkpt lat="49.51469" lon="-1.30587">
        <ele>25.61</ele>
        <time>2017-09-07T13:57:26Z</time>
      </trkpt>
      <trkpt lat="49.51468" lon="-1.30582">
        <ele>25.61</ele>
        <time>2017-09-07T13:57:39Z</time>
      </trkpt>
      <trkpt lat="49.51464" lon="-1.30558">
        <ele>27.53</ele>
        <time>2017-09-07T13:57:56Z</time>
      </trkpt>
      <trkpt lat="49.51464" lon="-1.30556">
        <ele>27.53</ele>
        <time>2017-09-07T13:57:58Z</time>
      </trkpt>
      <trkpt lat="49.51459" lon="-1.3053">
        <ele>28.02</ele>
        <time>2017-09-07T13:58:15Z</time>
      </trkpt>
      <trkpt lat="49.51454" lon="-1.30501">
        <ele>26.09</ele>
        <time>2017-09-07T13:58:33Z</time>
      </trkpt>
      <trkpt lat="49.5145" lon="-1.30472">
        <ele>26.09</ele>
        <time>2017-09-07T13:58:49Z</time>
      </trkpt>
      <trkpt lat="49.51443" lon="-1.30443">
        <ele>25.13</ele>
        <time>2017-09-07T13:59:06Z</time>
      </trkpt>
      <trkpt lat="49.51436" lon="-1.30415">
        <ele>27.53</ele>
        <time>2017-09-07T13:59:24Z</time>
      </trkpt>
      <trkpt lat="49.5143" lon="-1.30384">
        <ele>27.53</ele>
        <time>2017-09-07T13:59:42Z</time>
      </trkpt>
      <trkpt lat="49.51435" lon="-1.3036">
        <ele>27.05</ele>
        <time>2017-09-07T13:59:58Z</time>
      </trkpt>
      <trkpt lat="49.51449" lon="-1.30338">
        <ele>23.69</ele>
        <time>2017-09-07T14:00:17Z</time>
      </trkpt>
      <trkpt lat="49.5145" lon="-1.30335">
        <ele>23.21</ele>
        <time>2017-09-07T14:00:19Z</time>
      </trkpt>
      <trkpt lat="49.51465" lon="-1.30312">
        <ele>19.84</ele>
        <time>2017-09-07T14:00:40Z</time>
      </trkpt>
      <trkpt lat="49.51476" lon="-1.30288">
        <ele>15.52</ele>
        <time>2017-09-07T14:01:00Z</time>
      </trkpt>
      <trkpt lat="49.51481" lon="-1.30263">
        <ele>15.04</ele>
        <time>2017-09-07T14:01:17Z</time>
      </trkpt>
      <trkpt lat="49.51482" lon="-1.30233">
        <ele>17.44</ele>
        <time>2017-09-07T14:01:35Z</time>
      </trkpt>
      <trkpt lat="49.51483" lon="-1.30213">
        <ele>16.96</ele>
        <time>2017-09-07T14:01:50Z</time>
      </trkpt>
      <trkpt lat="49.51482" lon="-1.30211">
        <ele>16.96</ele>
        <time>2017-09-07T14:01:51Z</time>
      </trkpt>
      <trkpt lat="49.51478" lon="-1.30191">
        <ele>17.44</ele>
        <time>2017-09-07T14:02:06Z</time>
      </trkpt>
      <trkpt lat="49.5147" lon="-1.30159">
        <ele>19.36</ele>
        <time>2017-09-07T14:02:24Z</time>
      </trkpt>
      <trkpt lat="49.51465" lon="-1.3013">
        <ele>17.92</ele>
        <time>2017-09-07T14:02:40Z</time>
      </trkpt>
      <trkpt lat="49.51463" lon="-1.30103">
        <ele>16</ele>
        <time>2017-09-07T14:02:57Z</time>
      </trkpt>
      <trkpt lat="49.51459" lon="-1.30071">
        <ele>15.52</ele>
        <time>2017-09-07T14:03:15Z</time>
      </trkpt>
      <trkpt lat="49.51453" lon="-1.30048">
        <ele>14.56</ele>
        <time>2017-09-07T14:03:30Z</time>
      </trkpt>
      <trkpt lat="49.51449" lon="-1.3004">
        <ele>15.04</ele>
        <time>2017-09-07T14:03:36Z</time>
      </trkpt>
      <trkpt lat="49.51446" lon="-1.30034">
        <ele>15.04</ele>
        <time>2017-09-07T14:03:41Z</time>
      </trkpt>
      <trkpt lat="49.51432" lon="-1.3001">
        <ele>13.6</ele>
        <time>2017-09-07T14:03:59Z</time>
      </trkpt>
      <trkpt lat="49.5142" lon="-1.29992">
        <ele>13.12</ele>
        <time>2017-09-07T14:04:15Z</time>
      </trkpt>
      <trkpt lat="49.51419" lon="-1.29984">
        <ele>10.71</ele>
        <time>2017-09-07T14:04:35Z</time>
      </trkpt>
      <trkpt lat="49.51415" lon="-1.29981">
        <ele>11.19</ele>
        <time>2017-09-07T14:04:43Z</time>
      </trkpt>
      <trkpt lat="49.51409" lon="-1.29977">
        <ele>12.15</ele>
        <time>2017-09-07T14:04:50Z</time>
      </trkpt>
      <trkpt lat="49.51408" lon="-1.29974">
        <ele>12.63</ele>
        <time>2017-09-07T14:04:52Z</time>
      </trkpt>
      <trkpt lat="49.51405" lon="-1.2997">
        <ele>13.12</ele>
        <time>2017-09-07T14:04:56Z</time>
      </trkpt>
      <trkpt lat="49.51396" lon="-1.29956">
        <ele>15.04</ele>
        <time>2017-09-07T14:05:11Z</time>
      </trkpt>
      <trkpt lat="49.51389" lon="-1.29946">
        <ele>12.15</ele>
        <time>2017-09-07T14:05:28Z</time>
      </trkpt>
      <trkpt lat="49.51384" lon="-1.29941">
        <ele>9.75</ele>
        <time>2017-09-07T14:05:55Z</time>
      </trkpt>
      <trkpt lat="49.51382" lon="-1.2994">
        <ele>7.83</ele>
        <time>2017-09-07T14:06:11Z</time>
      </trkpt>
      <trkpt lat="49.5138" lon="-1.29935">
        <ele>8.31</ele>
        <time>2017-09-07T14:06:35Z</time>
      </trkpt>
      <trkpt lat="49.51378" lon="-1.2993">
        <ele>9.75</ele>
        <time>2017-09-07T14:06:39Z</time>
      </trkpt>
      <trkpt lat="49.51374" lon="-1.29922">
        <ele>10.23</ele>
        <time>2017-09-07T14:06:45Z</time>
      </trkpt>
      <trkpt lat="49.51369" lon="-1.29913">
        <ele>10.23</ele>
        <time>2017-09-07T14:06:53Z</time>
      </trkpt>
      <trkpt lat="49.5136" lon="-1.29893">
        <ele>14.08</ele>
        <time>2017-09-07T14:07:07Z</time>
      </trkpt>
      <trkpt lat="49.51354" lon="-1.29884">
        <ele>16.48</ele>
        <time>2017-09-07T14:07:14Z</time>
      </trkpt>
      <trkpt lat="49.51341" lon="-1.29866">
        <ele>16</ele>
        <time>2017-09-07T14:07:29Z</time>
      </trkpt>
      <trkpt lat="49.51332" lon="-1.29855">
        <ele>17.92</ele>
        <time>2017-09-07T14:07:38Z</time>
      </trkpt>
      <trkpt lat="49.51312" lon="-1.29842">
        <ele>20.32</ele>
        <time>2017-09-07T14:07:57Z</time>
      </trkpt>
      <trkpt lat="49.51304" lon="-1.29835">
        <ele>19.84</ele>
        <time>2017-09-07T14:08:12Z</time>
      </trkpt>
      <trkpt lat="49.51302" lon="-1.29831">
        <ele>20.32</ele>
        <time>2017-09-07T14:08:23Z</time>
      </trkpt>
      <trkpt lat="49.51284" lon="-1.29817">
        <ele>19.84</ele>
        <time>2017-09-07T14:08:39Z</time>
      </trkpt>
      <trkpt lat="49.5128" lon="-1.29812">
        <ele>19.84</ele>
        <time>2017-09-07T14:08:43Z</time>
      </trkpt>
      <trkpt lat="49.51277" lon="-1.29809">
        <ele>19.36</ele>
        <time>2017-09-07T14:08:47Z</time>
      </trkpt>
      <trkpt lat="49.51275" lon="-1.29807">
        <ele>19.84</ele>
        <time>2017-09-07T14:08:49Z</time>
      </trkpt>
      <trkpt lat="49.51257" lon="-1.298">
        <ele>19.84</ele>
        <time>2017-09-07T14:09:06Z</time>
      </trkpt>
      <trkpt lat="49.51242" lon="-1.29796">
        <ele>21.29</ele>
        <time>2017-09-07T14:09:22Z</time>
      </trkpt>
      <trkpt lat="49.51232" lon="-1.29791">
        <ele>23.21</ele>
        <time>2017-09-07T14:09:35Z</time>
      </trkpt>
      <trkpt lat="49.51229" lon="-1.29791">
        <ele>22.25</ele>
        <time>2017-09-07T14:09:47Z</time>
      </trkpt>
      <trkpt lat="49.51231" lon="-1.29792">
        <ele>21.77</ele>
        <time>2017-09-07T14:10:00Z</time>
      </trkpt>
      <trkpt lat="49.51232" lon="-1.29792">
        <ele>25.13</ele>
        <time>2017-09-07T14:10:21Z</time>
      </trkpt>
      <trkpt lat="49.51235" lon="-1.29791">
        <ele>26.57</ele>
        <time>2017-09-07T14:10:48Z</time>
      </trkpt>
      <trkpt lat="49.5123" lon="-1.29791">
        <ele>27.05</ele>
        <time>2017-09-07T14:11:14Z</time>
      </trkpt>
      <trkpt lat="49.5123" lon="-1.29793">
        <ele>27.05</ele>
        <time>2017-09-07T14:11:39Z</time>
      </trkpt>
      <trkpt lat="49.51231" lon="-1.29794">
        <ele>28.02</ele>
        <time>2017-09-07T14:12:08Z</time>
      </trkpt>
    </trkseg>
  </trk>
</gpx>